createdAt,value
2019-02-24T00:03:33.321Z,20.33
2019-02-24T00:08:36.722Z,20.63
2019-02-24T00:13:40.140Z,20.40
2019-02-24T00:18:43.549Z,18.07
2019-02-24T00:23:46.986Z,22.77
2019-02-24T00:28:50.467Z,20.40
2019-02-24T00:33:53.942Z,22.20
2019-02-24T00:38:57.400Z,19.20
2019-02-24T00:44:00.826Z,20.53
2019-02-24T00:49:04.248Z,21.40
2019-02-24T00:54:07.713Z,19.97
2019-02-24T00:59:11.145Z,20.70
2019-02-24T01:04:14.577Z,18.80
2019-02-24T01:09:18.052Z,23.60
2019-02-24T01:14:21.430Z,22.47
2019-02-24T01:19:24.904Z,18.37
2019-02-24T01:24:28.309Z,18.53
2019-02-24T01:29:31.738Z,18.40
2019-02-24T01:34:35.174Z,16.87
2019-02-24T01:39:38.617Z,19.63
2019-02-24T01:44:42.077Z,19.07
2019-02-24T01:49:45.566Z,17.37
2019-02-24T01:54:48.996Z,21.40
2019-02-24T01:59:52.406Z,21.33
2019-02-24T02:04:55.840Z,19.93
2019-02-24T02:09:59.284Z,18.07
2019-02-24T02:15:02.697Z,21.10
2019-02-24T02:20:08.570Z,21.00
2019-02-24T02:25:12.016Z,21.80
2019-02-24T02:30:15.492Z,20.00
2019-02-24T02:35:18.900Z,19.60
2019-02-24T02:40:22.407Z,22.60
2019-02-24T02:45:25.910Z,18.40
2019-02-24T02:50:29.362Z,20.53
2019-02-24T02:55:32.800Z,17.87
2019-02-24T03:00:36.817Z,17.53
2019-02-24T03:05:41.877Z,19.63
2019-02-24T03:10:45.365Z,15.70
2019-02-24T03:15:48.790Z,17.07
2019-02-24T03:20:52.218Z,21.00
2019-02-24T03:25:55.632Z,21.43
2019-02-24T03:30:59.051Z,22.73
2019-02-24T03:36:02.538Z,17.43
2019-02-24T03:41:07.047Z,20.70
2019-02-24T03:46:10.614Z,20.93
2019-02-24T03:51:14.056Z,22.03
2019-02-24T03:56:17.566Z,22.03
2019-02-24T04:01:20.996Z,21.53
2019-02-24T04:06:24.444Z,18.10
2019-02-24T04:11:27.860Z,20.67
2019-02-24T04:16:31.303Z,21.77
2019-02-24T04:21:34.797Z,18.13
2019-02-24T04:26:38.258Z,18.73
2019-02-24T04:31:41.686Z,18.10
2019-02-24T04:36:45.138Z,22.67
2019-02-24T04:41:48.569Z,20.20
2019-02-24T04:46:52.002Z,18.23
2019-02-24T04:51:55.495Z,21.83
2019-02-24T04:56:58.907Z,22.03
2019-02-24T05:02:02.358Z,22.83
2019-02-24T05:07:05.785Z,21.10
2019-02-24T05:12:09.208Z,20.23
2019-02-24T05:17:12.656Z,20.77
2019-02-24T05:22:16.100Z,21.57
2019-02-24T05:27:19.528Z,18.43
2019-02-24T05:32:22.978Z,19.23
2019-02-24T05:37:26.371Z,18.53
2019-02-24T05:42:29.809Z,16.47
2019-02-24T05:47:33.253Z,15.63
2019-02-24T05:52:36.701Z,18.53
2019-02-24T05:57:40.113Z,19.77
2019-02-24T06:02:43.573Z,21.17
2019-02-24T06:07:46.988Z,16.47
2019-02-24T06:12:50.421Z,21.50
2019-02-24T06:17:53.829Z,17.13
2019-02-24T06:22:57.293Z,19.43
2019-02-24T06:28:00.807Z,18.97
2019-02-24T06:33:04.273Z,19.83
2019-02-24T06:38:07.692Z,19.13
2019-02-24T06:43:11.135Z,18.43
2019-02-24T06:48:14.545Z,16.87
2019-02-24T06:53:18.025Z,17.40
2019-02-24T06:58:21.452Z,19.93
2019-02-24T07:03:24.864Z,21.37
2019-02-24T07:08:28.361Z,19.47
2019-02-24T07:13:31.868Z,16.23
2019-02-24T07:18:36.184Z,20.07
2019-02-24T07:23:39.734Z,14.93
2019-02-24T07:28:43.110Z,21.73
2019-02-24T07:33:46.526Z,19.07
2019-02-24T07:38:49.975Z,24.90
2019-02-24T07:43:53.437Z,19.00
2019-02-24T07:48:56.858Z,22.03
2019-02-24T07:54:00.349Z,19.50
2019-02-24T07:59:03.779Z,19.93
2019-02-24T08:04:07.207Z,20.83
2019-02-24T08:09:10.619Z,18.03
2019-02-24T08:14:14.057Z,17.67
2019-02-24T08:19:17.483Z,19.60
2019-02-24T08:24:20.903Z,22.63
2019-02-24T08:29:24.343Z,17.73
2019-02-24T08:34:27.776Z,24.27
2019-02-24T08:39:31.198Z,26.00
2019-02-24T08:44:34.640Z,24.20
2019-02-24T08:49:38.067Z,19.87
2019-02-24T08:54:41.503Z,19.73
2019-02-24T08:59:44.922Z,19.03
2019-02-24T09:04:48.378Z,18.43
2019-02-24T09:09:51.822Z,18.07
2019-02-24T09:14:55.280Z,16.63
2019-02-24T09:19:58.707Z,16.53
2019-02-24T09:25:03.376Z,17.03
2019-02-24T09:30:12.107Z,14.53
2019-02-24T09:35:15.533Z,14.53
2019-02-24T09:40:18.989Z,15.33
2019-02-24T09:45:22.406Z,16.63
2019-02-24T09:50:26.024Z,14.37
2019-02-24T09:55:31.014Z,10.43
2019-02-24T10:00:34.469Z,15.00
2019-02-24T10:05:38.987Z,12.63
2019-02-24T10:10:42.507Z,10.43
2019-02-24T10:15:45.935Z,11.07
2019-02-24T10:20:49.410Z,10.43
2019-02-24T10:25:52.848Z,12.63
2019-02-24T10:30:56.307Z,11.73
2019-02-24T10:35:59.738Z,9.93
2019-02-24T10:41:03.173Z,8.57
2019-02-24T10:46:06.608Z,9.00
2019-02-24T10:51:10.023Z,9.43
2019-02-24T10:56:13.479Z,8.83
2019-02-24T11:01:16.907Z,9.20
2019-02-24T11:06:20.327Z,6.73
2019-02-24T11:11:23.757Z,9.60
2019-02-24T11:16:27.202Z,10.00
2019-02-24T11:21:30.624Z,11.87
2019-02-24T11:26:34.043Z,9.50
2019-02-24T11:31:38.585Z,9.83
2019-02-24T11:36:42.172Z,10.23
2019-02-24T11:41:45.668Z,9.13
2019-02-24T11:46:49.089Z,9.53
2019-02-24T11:51:52.668Z,8.90
2019-02-24T11:56:56.100Z,9.17
2019-02-24T12:01:59.569Z,9.37
2019-02-24T12:07:03.070Z,9.33
2019-02-24T12:12:06.508Z,8.80
2019-02-24T12:17:09.946Z,6.40
2019-02-24T12:22:13.368Z,7.40
2019-02-24T12:27:16.809Z,8.40
2019-02-24T12:32:20.224Z,6.53
2019-02-24T12:37:23.738Z,8.00
2019-02-24T12:42:27.154Z,7.33
2019-02-24T12:47:30.567Z,7.47
2019-02-24T12:52:34.027Z,8.50
2019-02-24T12:57:37.466Z,5.33
2019-02-24T13:02:40.905Z,8.03
2019-02-24T13:07:44.348Z,6.97
2019-02-24T13:12:47.778Z,6.20
2019-02-24T13:17:51.313Z,6.63
2019-02-24T13:22:54.794Z,6.03
2019-02-24T13:27:58.234Z,5.57
2019-02-24T13:33:01.680Z,5.63
2019-02-24T13:38:05.111Z,7.57
2019-02-24T13:43:08.534Z,6.43
2019-02-24T13:48:11.957Z,7.30
2019-02-24T13:53:15.377Z,8.40
2019-02-24T13:58:18.829Z,8.20
2019-02-24T14:03:22.270Z,7.97
2019-02-24T14:08:27.686Z,5.23
2019-02-24T14:13:30.884Z,5.57
2019-02-24T14:18:34.289Z,3.90
2019-02-24T14:23:37.727Z,6.83
2019-02-24T14:28:41.295Z,4.70
2019-02-24T14:33:44.743Z,4.70
2019-02-24T14:38:48.182Z,6.43
2019-02-24T14:43:51.591Z,4.97
2019-02-24T14:48:55.005Z,8.73
2019-02-24T14:53:58.419Z,5.57
2019-02-24T14:59:01.855Z,6.40
2019-02-24T15:04:05.497Z,7.20
2019-02-24T15:09:09.100Z,7.07
2019-02-24T15:14:12.604Z,7.83
2019-02-24T15:19:16.334Z,13.57
2019-02-24T15:24:19.778Z,15.97
2019-02-24T15:29:23.209Z,8.70
2019-02-24T15:34:26.620Z,6.47
2019-02-24T15:39:30.123Z,6.83
2019-02-24T15:44:33.559Z,7.33
2019-02-24T15:49:36.997Z,6.53
2019-02-24T15:54:40.420Z,9.80
2019-02-24T15:59:43.846Z,12.70
2019-02-24T16:04:47.328Z,10.40
2019-02-24T16:09:50.786Z,8.30
2019-02-24T16:14:54.208Z,9.27
2019-02-24T16:19:57.639Z,6.10
2019-02-24T16:25:01.073Z,6.50
2019-02-24T16:30:06.868Z,6.57
2019-02-24T16:35:12.863Z,7.67
2019-02-24T16:40:18.952Z,8.53
2019-02-24T16:45:22.525Z,7.90
2019-02-24T16:50:25.954Z,8.63
2019-02-24T16:55:29.464Z,7.47
2019-02-24T17:00:32.969Z,8.97
2019-02-24T17:05:36.973Z,10.90
2019-02-24T17:10:40.612Z,10.73
2019-02-24T17:15:44.108Z,7.63
2019-02-24T17:20:47.516Z,9.60
2019-02-24T17:25:52.971Z,7.87
2019-02-24T17:30:56.094Z,9.90
2019-02-24T17:35:59.516Z,11.43
2019-02-24T17:41:03.035Z,16.23
2019-02-24T17:46:06.466Z,9.80
2019-02-24T17:51:09.926Z,11.27
2019-02-24T17:56:13.332Z,11.53
2019-02-24T18:01:16.796Z,18.10
2019-02-24T18:06:20.236Z,26.60
2019-02-24T18:11:23.767Z,18.10
2019-02-24T18:16:27.166Z,18.90
2019-02-24T18:21:30.618Z,18.03
2019-02-24T18:26:34.063Z,19.90
2019-02-24T18:31:37.510Z,21.23
2019-02-24T18:36:40.965Z,19.10
2019-02-24T18:41:44.403Z,21.37
2019-02-24T18:46:47.836Z,16.77
2019-02-24T18:51:51.274Z,15.77
2019-02-24T18:56:55.656Z,14.97
2019-02-24T19:01:59.097Z,10.87
2019-02-24T19:07:02.619Z,13.80
2019-02-24T19:12:06.014Z,14.07
2019-02-24T19:17:09.452Z,17.00
2019-02-24T19:22:12.836Z,10.83
2019-02-24T19:27:16.328Z,15.07
2019-02-24T19:32:19.726Z,10.33
2019-02-24T19:37:23.276Z,13.20
2019-02-24T19:42:26.714Z,12.77
2019-02-24T19:47:30.217Z,13.70
2019-02-24T19:52:33.641Z,13.57
2019-02-24T19:57:37.100Z,15.23
2019-02-24T20:02:40.572Z,14.47
2019-02-24T20:07:43.976Z,14.80
2019-02-24T20:12:47.415Z,17.47
2019-02-24T20:17:50.891Z,17.50
2019-02-24T20:22:54.331Z,15.77
2019-02-24T20:27:57.751Z,27.70
2019-02-24T20:33:01.177Z,23.33
2019-02-24T20:38:04.614Z,25.77
2019-02-24T20:43:08.059Z,19.93
2019-02-24T20:48:12.346Z,20.73
2019-02-24T20:53:15.828Z,20.97
2019-02-24T20:58:19.265Z,22.03
2019-02-24T21:03:22.771Z,25.93
2019-02-24T21:08:26.218Z,22.97
2019-02-24T21:13:29.638Z,19.63
2019-02-24T21:18:33.121Z,18.70
2019-02-24T21:23:36.548Z,16.87
2019-02-24T21:28:40.032Z,17.73
2019-02-24T21:33:43.463Z,20.33
2019-02-24T21:38:47.112Z,27.13
2019-02-24T21:43:50.627Z,21.50
2019-02-24T21:48:54.071Z,17.73
2019-02-24T21:53:57.482Z,19.10
2019-02-24T21:59:00.913Z,19.87
2019-02-24T22:04:04.405Z,19.70
2019-02-24T22:09:09.858Z,18.20
2019-02-24T22:14:13.404Z,39.30
2019-02-24T22:19:16.855Z,43.80
2019-02-24T22:24:20.353Z,41.87
2019-02-24T22:29:23.816Z,31.90
2019-02-24T22:34:27.234Z,24.47
2019-02-24T22:39:31.729Z,20.60
2019-02-24T22:44:35.208Z,17.87
2019-02-24T22:49:38.669Z,20.73
2019-02-24T22:54:42.106Z,17.07
2019-02-24T22:59:45.588Z,19.60
2019-02-24T23:04:49.076Z,17.90
2019-02-24T23:09:52.513Z,17.20
2019-02-24T23:14:55.939Z,16.47
2019-02-24T23:19:59.352Z,17.40
2019-02-24T23:25:02.788Z,23.33
2019-02-24T23:30:08.541Z,20.53
2019-02-24T23:35:12.044Z,20.10
2019-02-24T23:40:15.465Z,16.00
2019-02-24T23:45:18.882Z,16.17
2019-02-24T23:50:22.303Z,17.53
2019-02-24T23:55:25.978Z,18.77
